sensor_id;sensor_type;location;lat;lon;timestamp;P1;durP1;ratioP1;P2;durP2;ratioP2
78344;SDS011;67620;51.134;6.548;2024-01-10T00:01:07;15.87;;;8.27;;
78344;SDS011;67620;51.134;6.548;2024-01-10T00:03:33;16.23;;;8.50;;
78344;SDS011;67620;51.134;6.548;2024-01-10T00:05:58;15.70;;;8.60;;
78344;SDS011;67620;51.134;6.548;2024-01-10T00:08:24;16.50;;;7.63;;
78344;SDS011;67620;51.134;6.548;2024-01-10T00:10:51;15.43;;;7.90;;
78344;SDS011;67620;51.134;6.548;2024-01-10T00:13:19;16.17;;;7.95;;
78344;SDS011;67620;51.134;6.548;2024-01-10T00:15:45;15.88;;;8.40;;
78344;SDS011;67620;51.134;6.548;2024-01-10T00:18:10;17.80;;;8.50;;
78344;SDS011;67620;51.134;6.548;2024-01-10T00:20:38;14.73;;;8.10;;
78344;SDS011;67620;51.134;6.548;2024-01-10T00:23:04;16.50;;;8.10;;
78344;SDS011;67620;51.134;6.548;2024-01-10T00:25:31;16.90;;;8.43;;
78344;SDS011;67620;51.134;6.548;2024-01-10T00:27:57;16.27;;;8.02;;
78344;SDS011;67620;51.134;6.548;2024-01-10T00:30:22;15.50;;;8.33;;
78344;SDS011;67620;51.134;6.548;2024-01-10T00:32:48;18.03;;;8.70;;
78344;SDS011;67620;51.134;6.548;2024-01-10T00:35:13;15.67;;;8.83;;
78344;SDS011;67620;51.134;6.548;2024-01-10T00:37:39;15.82;;;8.73;;
78344;SDS011;67620;51.134;6.548;2024-01-10T00:40:05;14.57;;;7.97;;
78344;SDS011;67620;51.134;6.548;2024-01-10T00:42:31;15.98;;;8.52;;
78344;SDS011;67620;51.134;6.548;2024-01-10T00:44:56;15.37;;;8.43;;
78344;SDS011;67620;51.134;6.548;2024-01-10T00:47:22;18.67;;;8.73;;
78344;SDS011;67620;51.134;6.548;2024-01-10T00:49:47;16.87;;;8.63;;
78344;SDS011;67620;51.134;6.548;2024-01-10T00:52:13;16.85;;;9.18;;
78344;SDS011;67620;51.134;6.548;2024-01-10T00:54:38;17.38;;;8.88;;
78344;SDS011;67620;51.134;6.548;2024-01-10T00:57:04;16.40;;;8.90;;
78344;SDS011;67620;51.134;6.548;2024-01-10T00:59:29;14.90;;;8.53;;
78344;SDS011;67620;51.134;6.548;2024-01-10T01:01:55;16.37;;;8.60;;
78344;SDS011;67620;51.134;6.548;2024-01-10T01:04:20;15.80;;;8.43;;
78344;SDS011;67620;51.134;6.548;2024-01-10T01:06:45;15.90;;;8.83;;
78344;SDS011;67620;51.134;6.548;2024-01-10T01:09:11;16.67;;;8.80;;
78344;SDS011;67620;51.134;6.548;2024-01-10T01:11:40;15.90;;;8.70;;
78344;SDS011;67620;51.134;6.548;2024-01-10T01:14:06;16.23;;;8.57;;
78344;SDS011;67620;51.134;6.548;2024-01-10T01:16:31;16.58;;;8.55;;
78344;SDS011;67620;51.134;6.548;2024-01-10T01:18:57;15.70;;;9.27;;
78344;SDS011;67620;51.134;6.548;2024-01-10T01:21:22;15.43;;;8.30;;
78344;SDS011;67620;51.134;6.548;2024-01-10T01:23:48;17.60;;;8.43;;
78344;SDS011;67620;51.134;6.548;2024-01-10T01:26:13;15.63;;;8.70;;
78344;SDS011;67620;51.134;6.548;2024-01-10T01:28:39;15.77;;;8.40;;
78344;SDS011;67620;51.134;6.548;2024-01-10T01:31:05;15.47;;;8.87;;
78344;SDS011;67620;51.134;6.548;2024-01-10T01:33:30;18.03;;;9.03;;
78344;SDS011;67620;51.134;6.548;2024-01-10T01:35:56;16.48;;;8.90;;
78344;SDS011;67620;51.134;6.548;2024-01-10T01:38:21;16.23;;;8.87;;
78344;SDS011;67620;51.134;6.548;2024-01-10T01:40:47;15.40;;;8.47;;
78344;SDS011;67620;51.134;6.548;2024-01-10T01:43:19;14.97;;;8.33;;
78344;SDS011;67620;51.134;6.548;2024-01-10T01:45:46;14.10;;;8.15;;
78344;SDS011;67620;51.134;6.548;2024-01-10T01:48:12;14.57;;;8.40;;
78344;SDS011;67620;51.134;6.548;2024-01-10T01:50:38;17.50;;;8.82;;
78344;SDS011;67620;51.134;6.548;2024-01-10T01:53:05;16.05;;;8.55;;
78344;SDS011;67620;51.134;6.548;2024-01-10T01:55:31;15.77;;;8.33;;
78344;SDS011;67620;51.134;6.548;2024-01-10T01:57:56;15.73;;;8.17;;
78344;SDS011;67620;51.134;6.548;2024-01-10T02:00:22;16.45;;;8.50;;
78344;SDS011;67620;51.134;6.548;2024-01-10T02:02:47;15.40;;;8.03;;
78344;SDS011;67620;51.134;6.548;2024-01-10T02:05:14;15.40;;;7.87;;
78344;SDS011;67620;51.134;6.548;2024-01-10T02:07:40;15.52;;;7.70;;
78344;SDS011;67620;51.134;6.548;2024-01-10T02:10:06;14.55;;;7.72;;
78344;SDS011;67620;51.134;6.548;2024-01-10T02:12:32;14.07;;;7.60;;
78344;SDS011;67620;51.134;6.548;2024-01-10T02:14:58;13.65;;;8.23;;
78344;SDS011;67620;51.134;6.548;2024-01-10T02:17:24;14.77;;;7.70;;
78344;SDS011;67620;51.134;6.548;2024-01-10T02:19:59;13.40;;;7.70;;
78344;SDS011;67620;51.134;6.548;2024-01-10T02:22:35;16.15;;;7.82;;
78344;SDS011;67620;51.134;6.548;2024-01-10T02:25:01;12.37;;;7.53;;
78344;SDS011;67620;51.134;6.548;2024-01-10T02:27:28;15.88;;;7.95;;
78344;SDS011;67620;51.134;6.548;2024-01-10T02:29:54;14.93;;;7.53;;
78344;SDS011;67620;51.134;6.548;2024-01-10T02:32:20;14.20;;;8.02;;
78344;SDS011;67620;51.134;6.548;2024-01-10T02:34:46;14.93;;;8.07;;
78344;SDS011;67620;51.134;6.548;2024-01-10T02:37:11;16.88;;;8.85;;
78344;SDS011;67620;51.134;6.548;2024-01-10T02:39:37;14.70;;;7.60;;
78344;SDS011;67620;51.134;6.548;2024-01-10T02:42:02;14.10;;;7.60;;
78344;SDS011;67620;51.134;6.548;2024-01-10T02:44:28;16.10;;;8.47;;
78344;SDS011;67620;51.134;6.548;2024-01-10T02:46:53;12.80;;;7.13;;
78344;SDS011;67620;51.134;6.548;2024-01-10T02:49:19;14.27;;;8.00;;
78344;SDS011;67620;51.134;6.548;2024-01-10T02:51:44;14.17;;;7.67;;
78344;SDS011;67620;51.134;6.548;2024-01-10T02:54:10;16.52;;;7.95;;
78344;SDS011;67620;51.134;6.548;2024-01-10T02:56:36;14.07;;;7.75;;
78344;SDS011;67620;51.134;6.548;2024-01-10T02:59:01;14.77;;;8.07;;
78344;SDS011;67620;51.134;6.548;2024-01-10T03:01:27;16.75;;;7.97;;
78344;SDS011;67620;51.134;6.548;2024-01-10T03:03:53;13.53;;;7.20;;
78344;SDS011;67620;51.134;6.548;2024-01-10T03:06:18;11.40;;;6.70;;
78344;SDS011;67620;51.134;6.548;2024-01-10T03:08:44;13.98;;;7.68;;
78344;SDS011;67620;51.134;6.548;2024-01-10T03:11:09;15.57;;;7.67;;
78344;SDS011;67620;51.134;6.548;2024-01-10T03:13:35;12.97;;;7.33;;
78344;SDS011;67620;51.134;6.548;2024-01-10T03:16:00;13.87;;;7.50;;
78344;SDS011;67620;51.134;6.548;2024-01-10T03:18:26;14.30;;;7.63;;
78344;SDS011;67620;51.134;6.548;2024-01-10T03:20:51;15.07;;;7.65;;
78344;SDS011;67620;51.134;6.548;2024-01-10T03:23:17;15.33;;;7.97;;
78344;SDS011;67620;51.134;6.548;2024-01-10T03:25:42;14.23;;;7.43;;
78344;SDS011;67620;51.134;6.548;2024-01-10T03:28:08;16.60;;;8.13;;
78344;SDS011;67620;51.134;6.548;2024-01-10T03:30:33;15.35;;;7.47;;
78344;SDS011;67620;51.134;6.548;2024-01-10T03:32:59;13.45;;;7.68;;
78344;SDS011;67620;51.134;6.548;2024-01-10T03:35:24;14.50;;;7.77;;
78344;SDS011;67620;51.134;6.548;2024-01-10T03:37:50;14.23;;;7.70;;
78344;SDS011;67620;51.134;6.548;2024-01-10T03:40:15;13.60;;;7.70;;
78344;SDS011;67620;51.134;6.548;2024-01-10T03:42:41;13.27;;;6.73;;
78344;SDS011;67620;51.134;6.548;2024-01-10T03:45:06;14.63;;;7.53;;
78344;SDS011;67620;51.134;6.548;2024-01-10T03:47:32;13.40;;;7.47;;
78344;SDS011;67620;51.134;6.548;2024-01-10T03:49:57;13.10;;;7.53;;
78344;SDS011;67620;51.134;6.548;2024-01-10T03:52:23;14.37;;;7.13;;
78344;SDS011;67620;51.134;6.548;2024-01-10T03:54:48;13.70;;;7.40;;
78344;SDS011;67620;51.134;6.548;2024-01-10T03:57:14;13.02;;;6.78;;
78344;SDS011;67620;51.134;6.548;2024-01-10T03:59:39;13.50;;;7.55;;
78344;SDS011;67620;51.134;6.548;2024-01-10T04:02:05;13.30;;;7.43;;
78344;SDS011;67620;51.134;6.548;2024-01-10T04:04:30;13.53;;;7.13;;
78344;SDS011;67620;51.134;6.548;2024-01-10T04:06:56;14.20;;;6.47;;
78344;SDS011;67620;51.134;6.548;2024-01-10T04:09:21;14.43;;;7.55;;
78344;SDS011;67620;51.134;6.548;2024-01-10T04:11:47;13.63;;;6.72;;
78344;SDS011;67620;51.134;6.548;2024-01-10T04:14:12;12.70;;;6.80;;
78344;SDS011;67620;51.134;6.548;2024-01-10T04:16:37;14.50;;;7.00;;
78344;SDS011;67620;51.134;6.548;2024-01-10T04:19:03;13.40;;;7.40;;
78344;SDS011;67620;51.134;6.548;2024-01-10T04:21:28;13.80;;;7.20;;
78344;SDS011;67620;51.134;6.548;2024-01-10T04:23:54;14.73;;;7.53;;
78344;SDS011;67620;51.134;6.548;2024-01-10T04:26:19;14.17;;;7.50;;
78344;SDS011;67620;51.134;6.548;2024-01-10T04:28:45;14.57;;;7.53;;
78344;SDS011;67620;51.134;6.548;2024-01-10T04:31:10;13.67;;;6.93;;
78344;SDS011;67620;51.134;6.548;2024-01-10T04:33:36;13.80;;;6.90;;
78344;SDS011;67620;51.134;6.548;2024-01-10T04:36:01;13.13;;;7.32;;
78344;SDS011;67620;51.134;6.548;2024-01-10T04:38:27;13.20;;;7.40;;
78344;SDS011;67620;51.134;6.548;2024-01-10T04:40:52;14.43;;;7.63;;
78344;SDS011;67620;51.134;6.548;2024-01-10T04:43:18;13.33;;;7.13;;
78344;SDS011;67620;51.134;6.548;2024-01-10T04:45:44;14.18;;;7.40;;
78344;SDS011;67620;51.134;6.548;2024-01-10T04:48:10;14.52;;;7.72;;
78344;SDS011;67620;51.134;6.548;2024-01-10T04:50:35;13.33;;;7.87;;
78344;SDS011;67620;51.134;6.548;2024-01-10T04:53:01;15.23;;;7.57;;
78344;SDS011;67620;51.134;6.548;2024-01-10T04:55:26;13.03;;;7.20;;
78344;SDS011;67620;51.134;6.548;2024-01-10T04:57:52;13.50;;;7.28;;
78344;SDS011;67620;51.134;6.548;2024-01-10T05:00:18;12.60;;;7.00;;
